Time;durP1;ratioP1;P1;durP2;ratioP2;P2;SDS_P1;SDS_P2;PMS_P1;PMS_P2;Temp;Humidity;BMP_temperature;BMP_pressure;BME280_temperature;BME280_humidity;BME280_pressure;Samples;Min_cycle;Max_cycle;Signal;HPM_P1;HPM_P2
2022/08/24 00:01:26;;;;;;;0.30;0.10;;;29.00;49.50;;;;;;5088038;28;20119;-64
2022/08/24 00:03:56;;;;;;;2.20;0.13;;;28.90;50.20;;;;;;5087448;28;20128;-64
2022/08/24 00:06:24;;;;;;;0.63;0.10;;;28.90;49.60;;;;;;5087458;28;20051;-64
2022/08/24 00:08:53;;;;;;;0.82;0.10;;;28.90;49.60;;;;;;5096538;28;20774;-65
2022/08/24 00:11:20;;;;;;;0.17;0.10;;;28.80;49.60;;;;;;5088242;28;20054;-65
2022/08/24 00:13:48;;;;;;;0.22;0.10;;;28.80;49.50;;;;;;5087508;28;20062;-65
2022/08/24 00:16:17;;;;;;;2.60;0.20;;;28.80;49.50;;;;;;5087561;28;20051;-66
2022/08/24 00:18:45;;;;;;;1.77;0.35;;;28.80;49.50;;;;;;5087329;28;20040;-65
2022/08/24 00:21:13;;;;;;;1.60;0.10;;;28.80;49.50;;;;;;5089803;28;20476;-65
2022/08/24 00:23:40;;;;;;;0.40;0.20;;;28.70;49.60;;;;;;5097607;28;20040;-64
2022/08/24 00:26:09;;;;;;;0.90;0.65;;;28.70;49.60;;;;;;5087856;28;20079;-65
2022/08/24 00:28:36;;;;;;;4.07;0.20;;;28.70;49.50;;;;;;5087526;28;20043;-65
2022/08/24 00:31:03;;;;;;;0.50;0.30;;;28.70;49.60;;;;;;5052470;28;20189;-65
2022/08/24 00:33:32;;;;;;;0.75;0.10;;;28.70;49.70;;;;;;5087593;28;20036;-65
2022/08/24 00:35:59;;;;;;;0.52;0.20;;;28.70;49.80;;;;;;5087081;28;20043;-65
2022/08/24 00:38:26;;;;;;;0.20;0.10;;;28.70;49.80;;;;;;5087376;28;20048;-64
2022/08/24 00:40:53;;;;;;;0.30;0.10;;;28.70;49.80;;;;;;5087451;28;20036;-64
2022/08/24 00:43:24;;;;;;;0.70;0.40;;;28.70;49.80;;;;;;5087428;28;20035;-65
2022/08/24 00:46:01;;;;;;;0.73;0.63;;;28.60;49.60;;;;;;5086685;28;20058;-65
2022/08/24 00:48:33;;;;;;;0.50;0.20;;;28.70;49.70;;;;;;5087009;28;20146;-64
2022/08/24 00:51:04;;;;;;;0.15;0.15;;;28.70;49.70;;;;;;5080251;28;20060;-64
2022/08/24 00:53:34;;;;;;;0.30;0.10;;;28.60;49.50;;;;;;5087433;28;20036;-65
2022/08/24 00:56:05;;;;;;;0.10;0.10;;;28.60;49.50;;;;;;5087250;28;20071;-65
2022/08/24 00:58:36;;;;;;;0.10;0.10;;;28.60;49.50;;;;;;5086636;28;20135;-65
2022/08/24 01:01:06;;;;;;;3.33;0.88;;;28.60;49.50;;;;;;5087013;28;20462;-65
2022/08/24 01:03:37;;;;;;;1.10;0.10;;;28.60;49.50;;;;;;5078837;28;20416;-65
2022/08/24 01:06:05;;;;;;;4.38;0.10;;;28.60;49.50;;;;;;5097639;28;20534;-65
2022/08/24 01:08:32;;;;;;;0.20;0.10;;;28.60;49.50;;;;;;5089520;28;20523;-65
2022/08/24 01:11:02;;;;;;;0.28;0.10;;;28.60;49.50;;;;;;5086545;28;20036;-64
2022/08/24 01:13:30;;;;;;;0.45;0.22;;;28.60;49.50;;;;;;5057479;28;20044;-64
2022/08/24 01:16:01;;;;;;;0.70;0.10;;;28.60;49.50;;;;;;5086819;28;20096;-65
2022/08/24 01:21:18;;;;;;;1.20;0.10;;;28.60;49.60;;;;;;5087965;28;20028;-65
2022/08/24 01:23:49;;;;;;;1.65;0.10;;;28.60;49.60;;;;;;5068948;28;20044;-64
2022/08/24 01:26:22;;;;;;;5.30;0.10;;;28.60;49.60;;;;;;5069431;28;20051;-65
2022/08/24 01:28:54;;;;;;;0.68;0.40;;;28.60;49.60;;;;;;5068786;28;20040;-64
2022/08/24 01:31:23;;;;;;;0.22;0.10;;;28.60;49.60;;;;;;5068344;28;20036;-65
2022/08/24 01:33:52;;;;;;;1.02;0.10;;;28.60;49.70;;;;;;5086706;28;20044;-66
2022/08/24 01:36:25;;;;;;;0.10;0.10;;;28.60;49.70;;;;;;5068621;28;20129;-64
2022/08/24 01:38:55;;;;;;;0.10;0.10;;;28.60;49.70;;;;;;5070337;28;20048;-65
2022/08/24 01:41:22;;;;;;;0.93;0.35;;;28.60;49.70;;;;;;5073272;28;20046;-65
2022/08/24 01:43:49;;;;;;;0.40;0.10;;;28.50;49.70;;;;;;5086017;28;20579;-64
2022/08/24 01:46:16;;;;;;;0.25;0.25;;;28.50;49.70;;;;;;5068757;28;20456;-65
2022/08/24 01:48:43;;;;;;;0.10;0.10;;;28.50;49.70;;;;;;5068423;28;20040;-65
2022/08/24 01:51:10;;;;;;;0.40;0.10;;;28.50;49.80;;;;;;5086451;28;20068;-64
2022/08/24 01:53:38;;;;;;;2.17;0.10;;;28.50;49.80;;;;;;5068743;28;20491;-65
2022/08/24 01:56:07;;;;;;;0.30;0.10;;;28.50;49.80;;;;;;5068224;28;20036;-65
2022/08/24 01:58:35;;;;;;;1.40;0.10;;;28.50;49.80;;;;;;5067799;28;20033;-65
2022/08/24 02:01:02;;;;;;;0.47;0.10;;;28.50;49.80;;;;;;5070995;28;20424;-65
2022/08/24 02:03:29;;;;;;;1.27;0.10;;;28.50;49.80;;;;;;5090348;28;20070;-65
2022/08/24 02:05:57;;;;;;;3.17;0.38;;;28.50;49.90;;;;;;5077266;28;20452;-65
2022/08/24 02:08:24;;;;;;;0.28;0.10;;;28.50;49.90;;;;;;5071713;28;20190;-65
2022/08/24 02:10:52;;;;;;;0.90;0.20;;;28.50;50.00;;;;;;5061233;28;20048;-65
2022/08/24 02:13:21;;;;;;;0.80;0.20;;;28.50;50.00;;;;;;5071403;28;20036;-65
2022/08/24 02:15:48;;;;;;;0.57;0.57;;;28.50;50.00;;;;;;5071690;28;20094;-66
2022/08/24 02:18:15;;;;;;;0.28;0.28;;;28.50;50.10;;;;;;5071732;28;20123;-66
2022/08/24 02:20:43;;;;;;;1.20;0.10;;;28.50;50.10;;;;;;5070620;28;20040;-64
2022/08/24 02:23:10;;;;;;;0.75;0.10;;;28.50;50.20;;;;;;5089795;28;20071;-65
2022/08/24 02:25:38;;;;;;;0.50;0.10;;;28.40;50.10;;;;;;5071655;28;20047;-64
2022/08/24 02:28:05;;;;;;;0.68;0.10;;;28.40;50.10;;;;;;5089258;28;20109;-65
2022/08/24 02:30:34;;;;;;;0.80;0.10;;;28.50;50.30;;;;;;5086596;28;20123;-65
2022/08/24 02:33:01;;;;;;;0.40;0.40;;;28.40;50.20;;;;;;5083584;28;20085;-66
2022/08/24 02:35:29;;;;;;;0.75;0.10;;;28.40;50.30;;;;;;5071040;28;20058;-66
2022/08/24 02:37:57;;;;;;;0.52;0.10;;;28.40;50.30;;;;;;5070892;28;20082;-64
2022/08/24 02:40:26;;;;;;;0.10;0.10;;;28.40;50.30;;;;;;5071805;28;20067;-64
2022/08/24 02:42:54;;;;;;;5.15;0.10;;;28.40;50.40;;;;;;5085782;28;20036;-64
2022/08/24 02:45:22;;;;;;;0.63;0.10;;;28.30;50.30;;;;;;5070847;28;20040;-64
2022/08/24 02:47:51;;;;;;;0.10;0.10;;;28.30;50.40;;;;;;5070993;28;20040;-66
2022/08/24 02:50:20;;;;;;;2.45;0.10;;;28.30;50.40;;;;;;5071401;28;20525;-64
2022/08/24 02:52:47;;;;;;;0.20;0.20;;;28.30;51.00;;;;;;5071255;28;20046;-65
2022/08/24 02:55:18;;;;;;;2.58;0.10;;;28.30;51.10;;;;;;5070368;28;20036;-65
2022/08/24 02:57:46;;;;;;;1.83;0.20;;;28.20;50.50;;;;;;5070318;28;20123;-65
2022/08/24 03:00:15;;;;;;;0.13;0.10;;;28.20;50.50;;;;;;5070734;28;20047;-65
2022/08/24 03:02:53;;;;;;;6.30;0.10;;;28.20;50.60;;;;;;5088784;28;20522;-65
2022/08/24 03:05:21;;;;;;;1.63;0.10;;;28.20;50.60;;;;;;5070131;28;20036;-63
2022/08/24 03:07:48;;;;;;;1.65;0.10;;;28.20;50.80;;;;;;5070323;28;20036;-65
2022/08/24 03:10:16;;;;;;;0.88;0.10;;;28.20;50.70;;;;;;5077137;28;20594;-65
2022/08/24 03:12:43;;;;;;;1.55;0.10;;;28.10;50.70;;;;;;5088269;28;20044;-65
2022/08/24 03:15:12;;;;;;;0.25;0.10;;;28.20;50.90;;;;;;5070600;28;20054;-65
2022/08/24 03:17:40;;;;;;;0.15;0.10;;;28.10;50.80;;;;;;5070444;28;20764;-64
2022/08/24 03:20:12;;;;;;;1.27;0.10;;;28.10;51.00;;;;;;5069984;28;20423;-65
2022/08/24 03:22:40;;;;;;;0.10;0.10;;;28.10;51.00;;;;;;5088489;28;20075;-65
2022/08/24 03:25:09;;;;;;;0.10;0.10;;;28.10;51.10;;;;;;5088404;28;20036;-64
2022/08/24 03:27:36;;;;;;;1.25;0.17;;;28.10;51.10;;;;;;5070417;28;20127;-64
2022/08/24 03:30:04;;;;;;;1.20;0.10;;;28.10;51.20;;;;;;5070448;28;20044;-65
2022/08/24 03:32:32;;;;;;;1.73;0.10;;;28.10;51.20;;;;;;5087877;28;20048;-65
2022/08/24 03:34:59;;;;;;;0.35;0.35;;;28.00;51.20;;;;;;5088384;28;20043;-64
2022/08/24 03:37:27;;;;;;;0.45;0.10;;;28.10;51.30;;;;;;5088200;28;20135;-65
2022/08/24 03:39:55;;;;;;;0.20;0.20;;;28.00;51.30;;;;;;5087780;28;20123;-65
2022/08/24 03:42:22;;;;;;;2.03;0.10;;;28.00;51.50;;;;;;5070089;28;20044;-64
2022/08/24 03:44:49;;;;;;;1.48;0.10;;;28.00;51.50;;;;;;5069839;28;20048;-65
2022/08/24 03:47:17;;;;;;;4.18;0.13;;;28.00;51.70;;;;;;5069987;28;20123;-65
2022/08/24 03:49:44;;;;;;;1.42;0.10;;;27.90;51.60;;;;;;5069588;28;20035;-64
2022/08/24 03:52:11;;;;;;;1.15;0.10;;;27.90;51.70;;;;;;5069879;28;20040;-64
2022/08/24 03:54:40;;;;;;;0.17;0.13;;;27.90;51.80;;;;;;5087390;28;20044;-65
2022/08/24 03:57:07;;;;;;;3.35;0.10;;;27.90;51.90;;;;;;5069661;28;20048;-64
2022/08/24 03:59:35;;;;;;;0.50;0.10;;;27.80;51.90;;;;;;5069344;28;20044;-64
2022/08/24 04:02:02;;;;;;;2.05;0.15;;;27.80;52.00;;;;;;5069562;28;20052;-64
2022/08/24 04:04:29;;;;;;;3.65;0.20;;;27.80;52.10;;;;;;5087600;28;20114;-64
2022/08/24 04:06:56;;;;;;;0.95;0.30;;;27.80;52.20;;;;;;5069198;28;20063;-64
2022/08/24 04:09:25;;;;;;;0.30;0.10;;;27.70;52.20;;;;;;5069204;28;20050;-63
2022/08/24 04:11:54;;;;;;;1.20;0.20;;;27.70;52.30;;;;;;5069604;28;20048;-64
2022/08/24 04:14:24;;;;;;;0.20;0.10;;;27.70;52.40;;;;;;5069495;28;20043;-65
2022/08/24 04:16:54;;;;;;;0.10;0.10;;;27.60;52.40;;;;;;5068935;28;20421;-63
2022/08/24 04:19:27;;;;;;;1.65;0.20;;;27.60;52.50;;;;;;5069202;28;20090;-64
2022/08/24 04:21:57;;;;;;;0.30;0.10;;;27.60;53.20;;;;;;5069068;28;20127;-65
2022/08/24 04:24:26;;;;;;;0.28;0.10;;;27.60;52.70;;;;;;5068816;28;20079;-64
2022/08/24 04:26:54;;;;;;;0.10;0.10;;;27.60;52.80;;;;;;5086419;28;20134;-67
2022/08/24 04:29:21;;;;;;;3.33;0.25;;;27.50;52.90;;;;;;5069423;28;20122;-65
2022/08/24 04:31:52;;;;;;;0.85;0.40;;;27.50;52.90;;;;;;5069716;28;20044;-65
2022/08/24 04:34:20;;;;;;;0.30;0.30;;;27.50;53.10;;;;;;5052832;28;20101;-64
2022/08/24 04:36:47;;;;;;;1.90;0.20;;;27.50;53.20;;;;;;5069473;28;20052;-63
2022/08/24 04:39:15;;;;;;;1.75;0.17;;;27.50;53.20;;;;;;5068966;28;20040;-65
2022/08/24 04:41:48;;;;;;;0.30;0.13;;;27.40;53.20;;;;;;5087032;28;20040;-64
2022/08/24 04:44:17;;;;;;;0.70;0.10;;;27.40;53.30;;;;;;5068939;28;20126;-65
2022/08/24 04:46:45;;;;;;;0.40;0.40;;;27.40;53.30;;;;;;5069098;28;20500;-65
2022/08/24 04:49:12;;;;;;;1.98;0.30;;;27.40;53.30;;;;;;5089437;28;20059;-65
2022/08/24 04:51:39;;;;;;;1.98;0.22;;;27.40;53.40;;;;;;5087269;28;20043;-64
2022/08/24 04:54:08;;;;;;;4.03;0.10;;;27.40;53.50;;;;;;5077789;28;20047;-64
2022/08/24 04:56:36;;;;;;;2.28;0.30;;;27.40;53.50;;;;;;5070916;28;20543;-65
2022/08/24 04:59:04;;;;;;;0.30;0.20;;;27.30;53.50;;;;;;5052078;28;20047;-66
2022/08/24 05:01:33;;;;;;;0.75;0.30;;;27.30;53.60;;;;;;5068799;28;20075;-66
2022/08/24 05:04:04;;;;;;;0.57;0.20;;;27.30;53.70;;;;;;5068653;28;20040;-66
2022/08/24 05:06:32;;;;;;;0.63;0.25;;;27.30;53.80;;;;;;5068468;28;20044;-65
2022/08/24 05:09:01;;;;;;;1.50;0.30;;;27.30;53.90;;;;;;5068963;28;20054;-65
2022/08/24 05:11:28;;;;;;;1.95;0.40;;;27.30;53.90;;;;;;5069011;28;20073;-65
2022/08/24 05:13:57;;;;;;;3.58;0.98;;;27.20;53.80;;;;;;5068513;28;20036;-64
2022/08/24 05:16:25;;;;;;;0.28;0.28;;;27.20;53.80;;;;;;5068921;28;20052;-66
2022/08/24 05:18:54;;;;;;;2.20;0.17;;;27.20;53.90;;;;;;5052870;28;20036;-66
2022/08/24 05:21:24;;;;;;;0.20;0.20;;;27.20;54.00;;;;;;5086406;28;20051;-67
2022/08/24 05:23:53;;;;;;;4.22;0.20;;;27.20;54.10;;;;;;5068651;28;20044;-66
2022/08/24 05:26:24;;;;;;;0.80;0.28;;;27.10;54.60;;;;;;5068472;28;20112;-65
2022/08/24 05:28:54;;;;;;;0.65;0.28;;;27.20;54.20;;;;;;5068740;28;20055;-64
2022/08/24 05:31:23;;;;;;;0.35;0.10;;;27.20;54.30;;;;;;5068373;28;20048;-66
2022/08/24 05:33:51;;;;;;;4.05;0.20;;;27.10;54.30;;;;;;5068641;28;20052;-65
2022/08/24 05:36:22;;;;;;;2.03;0.20;;;27.10;54.30;;;;;;5071236;28;20036;-64
2022/08/24 05:38:51;;;;;;;4.55;0.30;;;27.10;54.40;;;;;;5099720;28;20122;-65
2022/08/24 05:41:20;;;;;;;1.67;0.30;;;27.10;54.40;;;;;;5072111;28;20819;-64
2022/08/24 05:43:53;;;;;;;1.00;0.20;;;27.10;54.50;;;;;;5071613;28;20122;-63
2022/08/24 05:46:21;;;;;;;8.88;0.85;;;27.10;54.50;;;;;;5072509;28;20123;-63
2022/08/24 05:48:48;;;;;;;1.95;0.30;;;27.00;54.60;;;;;;5074839;28;20071;-64
2022/08/24 05:51:31;;;;;;;1.58;0.20;;;27.00;54.70;;;;;;5081878;28;20044;-63
2022/08/24 05:54:05;;;;;;;0.95;0.20;;;27.00;55.10;;;;;;5074134;28;20119;-62
2022/08/24 05:56:56;;;;;;;2.22;0.32;;;26.90;55.30;;;;;;5066428;28;20333;-61
2022/08/24 05:59:23;;;;;;;2.20;0.20;;;26.80;55.40;;;;;;5074407;28;20134;-62
2022/08/24 06:01:52;;;;;;;3.53;0.60;;;26.80;55.60;;;;;;5074570;28;20040;-61
2022/08/24 06:04:19;;;;;;;1.48;0.30;;;26.70;55.70;;;;;;5075220;28;20044;-61
2022/08/24 06:06:49;;;;;;;0.65;0.30;;;26.70;55.80;;;;;;5085490;28;20379;-62
2022/08/24 06:09:17;;;;;;;0.68;0.52;;;26.70;56.00;;;;;;5072527;28;20043;-61
2022/08/24 06:11:45;;;;;;;1.80;0.25;;;26.80;56.00;;;;;;5082212;28;20520;-61
2022/08/24 06:14:14;;;;;;;1.75;0.40;;;26.80;56.00;;;;;;5076956;28;20136;-61
2022/08/24 06:17:04;;;;;;;1.13;0.93;;;26.80;56.00;;;;;;5087441;28;20059;-59
2022/08/24 06:19:32;;;;;;;0.50;0.40;;;26.80;56.00;;;;;;5075312;28;20127;-61
2022/08/24 06:22:01;;;;;;;2.47;0.57;;;26.80;56.00;;;;;;5078887;28;20071;-60
2022/08/24 06:27:21;;;;;;;1.98;1.10;;;26.80;56.10;;;;;;5069718;28;20078;-63
2022/08/24 06:29:51;;;;;;;3.15;0.38;;;26.70;56.10;;;;;;5081146;28;20047;-61
2022/08/24 06:32:43;;;;;;;2.15;0.52;;;26.70;56.20;;;;;;5072549;28;20138;-63
2022/08/24 06:35:15;;;;;;;2.15;0.55;;;26.70;56.20;;;;;;5071921;28;20090;-61
2022/08/24 06:37:44;;;;;;;2.40;0.82;;;26.70;56.20;;;;;;5071704;28;20040;-65
2022/08/24 06:40:12;;;;;;;4.13;0.57;;;26.70;56.10;;;;;;5072129;28;20071;-61
2022/08/24 06:42:40;;;;;;;0.47;0.32;;;26.70;56.10;;;;;;5072791;28;20044;-61
2022/08/24 06:45:18;;;;;;;2.30;0.63;;;26.80;56.10;;;;;;5070958;28;20512;-60
2022/08/24 06:47:45;;;;;;;5.75;1.33;;;26.80;56.00;;;;;;5071833;28;20052;-57
2022/08/24 06:50:13;;;;;;;1.75;0.70;;;26.80;55.90;;;;;;5074539;28;20055;-60
2022/08/24 06:52:40;;;;;;;1.02;0.40;;;26.80;55.70;;;;;;5070892;28;20048;-59
2022/08/24 06:55:10;;;;;;;5.13;0.82;;;26.80;55.60;;;;;;5054541;28;20460;-59
2022/08/24 06:57:37;;;;;;;3.15;0.57;;;26.90;55.60;;;;;;5071509;28;20097;-58
2022/08/24 07:00:07;;;;;;;4.80;0.52;;;26.90;55.50;;;;;;5071049;28;20048;-58
2022/08/24 07:02:34;;;;;;;5.07;0.30;;;26.90;55.50;;;;;;5070874;28;20401;-59
2022/08/24 07:05:01;;;;;;;3.08;1.25;;;27.00;55.50;;;;;;5076031;28;20035;-61
2022/08/24 07:07:46;;;;;;;3.20;0.40;;;27.00;55.50;;;;;;5088945;28;20055;-60
2022/08/24 07:10:16;;;;;;;1.35;0.70;;;27.00;55.30;;;;;;5068102;28;20032;-60
2022/08/24 07:12:43;;;;;;;7.63;2.60;;;27.10;54.80;;;;;;5069217;28;20138;-61
2022/08/24 07:15:11;;;;;;;4.30;0.30;;;27.10;54.40;;;;;;5074243;28;20050;-66
2022/08/24 07:17:38;;;;;;;1.27;0.55;;;27.10;54.20;;;;;;5089322;28;20142;-69
2022/08/24 07:20:07;;;;;;;1.58;0.35;;;27.20;54.10;;;;;;5071211;28;20075;-60
2022/08/24 07:23:02;;;;;;;;;;;27.20;53.90;;;;;;5051731;28;20041;-59
2022/08/24 07:25:32;;;;;;;2.45;0.50;;;27.20;54.00;;;;;;5077999;28;20436;-59
2022/08/24 07:27:59;;;;;;;6.18;0.50;;;27.20;54.10;;;;;;5088625;28;20532;-54
2022/08/24 07:30:27;;;;;;;0.73;0.35;;;27.30;53.90;;;;;;5088196;28;20032;-58
2022/08/24 07:32:56;;;;;;;8.30;0.32;;;27.30;53.70;;;;;;5069342;28;20040;-64
2022/08/24 07:35:24;;;;;;;3.00;0.32;;;27.30;53.60;;;;;;5086179;28;20039;-61
2022/08/24 07:37:51;;;;;;;6.28;0.30;;;27.40;53.40;;;;;;5070637;28;20032;-58
2022/08/24 07:40:18;;;;;;;3.40;0.20;;;27.40;53.20;;;;;;5069176;28;20040;-56
2022/08/24 07:42:48;;;;;;;2.83;0.20;;;27.50;52.80;;;;;;5069168;28;20044;-52
2022/08/24 07:45:16;;;;;;;2.40;0.65;;;27.60;52.50;;;;;;5069096;28;20044;-49
2022/08/24 07:47:47;;;;;;;4.50;0.10;;;27.70;52.00;;;;;;5068801;28;20040;-52
2022/08/24 07:50:26;;;;;;;1.65;0.10;;;27.80;51.60;;;;;;5073999;28;20131;-57
2022/08/24 07:52:53;;;;;;;3.45;0.10;;;27.90;51.30;;;;;;5087849;28;20048;-59
2022/08/24 07:55:22;;;;;;;0.88;0.10;;;27.90;50.90;;;;;;5070180;28;20506;-59
2022/08/24 07:57:51;;;;;;;6.57;0.15;;;28.00;50.60;;;;;;5068464;28;20071;-57
2022/08/24 08:00:20;;;;;;;0.90;0.10;;;28.10;50.30;;;;;;5087929;28;20075;-59
2022/08/24 08:02:53;;;;;;;3.88;0.70;;;28.20;50.10;;;;;;5054081;28;20473;-54
2022/08/24 08:05:22;;;;;;;1.00;0.10;;;28.20;49.70;;;;;;5069339;28;20044;-61
2022/08/24 08:07:52;;;;;;;2.83;0.10;;;28.30;49.40;;;;;;5069676;28;20040;-54
2022/08/24 08:10:20;;;;;;;1.42;0.10;;;28.40;49.30;;;;;;5068922;28;20554;-55
2022/08/24 08:12:47;;;;;;;1.65;0.10;;;28.40;49.00;;;;;;5069298;28;20569;-54
2022/08/24 08:15:16;;;;;;;4.22;0.10;;;28.50;48.80;;;;;;5068691;28;20040;-57
2022/08/24 08:17:54;;;;;;;2.25;0.10;;;28.50;48.60;;;;;;5069345;28;20047;-61
2022/08/24 08:20:21;;;;;;;0.28;0.10;;;28.60;48.60;;;;;;5069245;28;20119;-62
2022/08/24 08:25:56;;;;;;;2.75;0.15;;;28.80;48.10;;;;;;5086888;28;20128;-62
2022/08/24 08:28:41;;;;;;;0.95;0.10;;;28.90;48.00;;;;;;5068854;28;20044;-61
2022/08/24 08:31:10;;;;;;;0.70;0.10;;;28.90;47.70;;;;;;5068447;28;20055;-56
2022/08/24 08:33:37;;;;;;;2.30;0.10;;;29.00;47.50;;;;;;5069000;28;20052;-61
2022/08/24 08:36:07;;;;;;;0.95;0.10;;;29.00;47.40;;;;;;5068988;28;20040;-61
2022/08/24 08:38:36;;;;;;;1.35;0.10;;;29.10;47.30;;;;;;5066702;28;20512;-59
2022/08/24 08:41:30;;;;;;;0.77;0.10;;;29.10;47.30;;;;;;5074701;28;20072;-54
2022/08/24 08:44:18;;;;;;;4.05;0.10;;;29.20;47.00;;;;;;5060591;28;20455;-54
2022/08/24 08:46:59;;;;;;;3.13;0.10;;;29.20;46.80;;;;;;5068720;28;20051;-56
2022/08/24 08:50:03;;;;;;;1.27;0.15;;;29.30;46.60;;;;;;5087069;28;20101;-56
2022/08/24 08:53:11;;;;;;;2.17;0.10;;;29.40;46.40;;;;;;5088669;28;20048;-60
2022/08/24 08:55:42;;;;;;;0.88;0.00;;;29.50;46.20;;;;;;5086176;28;20819;-61
2022/08/24 08:58:22;;;;;;;0.52;0.10;;;29.60;46.10;;;;;;5051967;28;20066;-61
2022/08/24 09:01:00;;;;;;;0.70;0.08;;;29.70;45.50;;;;;;5069572;28;20051;-60
2022/08/24 09:03:55;;;;;;;0.77;0.10;;;29.80;45.00;;;;;;5067445;28;20119;-55
2022/08/24 09:06:53;;;;;;;0.20;0.10;;;29.90;44.80;;;;;;5068368;28;20802;-55
2022/08/24 09:10:04;;;;;;;1.17;0.10;;;30.00;44.40;;;;;;5068626;28;20524;-57
2022/08/24 09:12:51;;;;;;;1.35;0.00;;;30.10;44.70;;;;;;5057174;28;20833;-56
2022/08/24 09:15:51;;;;;;;1.30;0.00;;;30.10;43.60;;;;;;5101429;28;20059;-64
2022/08/24 09:18:32;;;;;;;3.13;0.20;;;30.20;43.30;;;;;;5091455;28;20105;-58
2022/08/24 09:21:27;;;;;;;0.55;0.10;;;30.20;43.10;;;;;;5070224;28;20036;-55
2022/08/24 09:24:04;;;;;;;1.27;0.00;;;30.30;42.70;;;;;;5086449;28;20411;-61
2022/08/24 09:26:39;;;;;;;5.70;0.10;;;30.30;42.60;;;;;;5075206;28;20136;-61
2022/08/24 09:29:15;;;;;;;2.50;0.10;;;30.30;42.50;;;;;;5072539;28;20064;-55
2022/08/24 09:31:56;;;;;;;0.57;0.25;;;30.30;42.30;;;;;;5091038;28;20139;-53
2022/08/24 09:34:36;;;;;;;1.67;0.00;;;30.30;42.10;;;;;;5091411;28;20051;-63
2022/08/24 09:37:28;;;;;;;3.00;0.10;;;30.50;42.10;;;;;;5085200;28;20032;-68
2022/08/24 09:40:04;;;;;;;0.57;0.00;;;30.50;41.90;;;;;;5091885;28;20447;-61
2022/08/24 09:43:01;;;;;;;;;;;30.60;41.60;;;;;;5072862;28;20038;-66
2022/08/24 09:46:10;;;;;;;4.15;0.00;;;30.60;41.60;;;;;;5089570;28;20082;-61
2022/08/24 09:49:13;;;;;;;0.20;0.05;;;30.80;41.40;;;;;;5090809;28;20159;-65
2022/08/24 09:52:08;;;;;;;4.03;0.70;;;30.90;41.30;;;;;;5081346;28;20069;-61
2022/08/24 09:55:09;;;;;;;0.93;0.17;;;31.00;41.00;;;;;;5091436;28;20032;-67
2022/08/24 09:57:53;;;;;;;0.50;0.15;;;31.10;40.90;;;;;;5090231;28;20115;-68
2022/08/24 10:00:28;;;;;;;2.38;0.00;;;31.20;40.60;;;;;;5091903;28;20131;-68
2022/08/24 10:03:15;;;;;;;0.52;0.10;;;31.30;40.50;;;;;;5082394;28;20032;-66
2022/08/24 10:06:10;;;;;;;0.65;0.08;;;31.40;40.50;;;;;;5072349;28;20586;-66
2022/08/24 10:08:50;;;;;;;4.47;0.25;;;31.50;40.50;;;;;;5089688;28;20495;-56
2022/08/24 10:11:27;;;;;;;2.08;0.00;;;31.50;40.30;;;;;;5090117;28;20587;-70
2022/08/24 10:14:06;;;;;;;1.67;0.10;;;31.60;40.20;;;;;;5090133;28;20068;-52
2022/08/24 10:16:44;;;;;;;0.20;0.00;;;31.60;40.40;;;;;;5091894;28;20466;-60
2022/08/24 10:19:31;;;;;;;0.98;0.00;;;31.60;39.60;;;;;;5073181;28;20036;-60
2022/08/24 10:22:08;;;;;;;0.55;0.00;;;31.60;39.90;;;;;;5089274;28;20048;-59
2022/08/24 10:24:46;;;;;;;1.67;0.10;;;31.50;39.40;;;;;;5089848;28;20043;-59
2022/08/24 10:27:31;;;;;;;0.80;0.00;;;31.50;40.20;;;;;;5089803;28;20051;-62
2022/08/24 10:30:14;;;;;;;7.57;0.00;;;31.40;39.70;;;;;;5083148;28;20691;-60
2022/08/24 10:32:57;;;;;;;3.47;0.10;;;31.30;39.60;;;;;;5091254;28;20134;-67
2022/08/24 10:35:32;;;;;;;0.00;0.00;;;31.30;40.10;;;;;;5090659;28;20068;-65
2022/08/24 10:41:50;;;;;;;1.92;0.30;;;31.40;39.70;;;;;;5091415;28;20047;-60
2022/08/24 10:44:43;;;;;;;0.08;0.00;;;31.40;40.10;;;;;;5090741;28;20133;-50
2022/08/24 10:47:18;;;;;;;0.10;0.00;;;31.50;40.20;;;;;;5085559;28;20047;-54
2022/08/24 10:50:00;;;;;;;;;;;31.50;39.90;;;;;;5098919;28;20048;-53
2022/08/24 10:53:05;;;;;;;0.05;0.03;;;31.50;40.20;;;;;;5089112;28;19973;-56
2022/08/24 10:55:33;;;;;;;4.30;0.15;;;31.60;40.20;;;;;;5101624;28;20131;-53
2022/08/24 10:58:37;;;;;;;1.27;0.10;;;31.60;40.10;;;;;;5079546;28;20047;-56
2022/08/24 11:01:22;;;;;;;4.72;0.20;;;31.70;39.70;;;;;;5081533;28;20134;-54
2022/08/24 11:03:58;;;;;;;0.47;0.10;;;31.80;41.00;;;;;;5086966;28;20504;-55
2022/08/24 11:06:27;;;;;;;2.55;0.00;;;31.80;41.50;;;;;;5090293;28;20098;-54
2022/08/24 11:08:58;;;;;;;2.38;0.10;;;31.90;41.60;;;;;;5078602;28;20047;-54
2022/08/24 11:11:29;;;;;;;6.18;0.15;;;32.00;41.80;;;;;;5088845;28;20055;-54
2022/08/24 11:13:59;;;;;;;5.15;0.40;;;32.10;42.10;;;;;;5080010;28;20120;-55
2022/08/24 11:16:32;;;;;;;1.75;0.20;;;32.20;42.30;;;;;;5096425;28;20044;-58
2022/08/24 11:19:01;;;;;;;3.50;0.10;;;32.20;42.30;;;;;;5088635;28;20148;-56
2022/08/24 11:21:42;;;;;;;3.10;0.10;;;32.30;42.40;;;;;;5088435;28;20054;-56
2022/08/24 11:24:24;;;;;;;4.35;0.10;;;32.40;42.60;;;;;;5088492;28;20059;-56
2022/08/24 11:26:55;;;;;;;2.85;0.65;;;32.40;42.60;;;;;;5094837;28;20114;-55
2022/08/24 11:29:26;;;;;;;1.85;0.68;;;32.50;42.90;;;;;;5095054;28;20575;-54
2022/08/24 11:31:55;;;;;;;2.40;0.57;;;32.60;43.00;;;;;;5088578;28;20040;-57
2022/08/24 11:34:32;;;;;;;7.25;0.38;;;32.60;43.10;;;;;;5088636;28;20127;-54
2022/08/24 11:37:00;;;;;;;2.25;0.15;;;32.70;43.30;;;;;;5092864;28;20119;-56
2022/08/24 11:39:32;;;;;;;3.65;0.17;;;32.70;43.40;;;;;;5099585;28;20062;-53
2022/08/24 11:42:07;;;;;;;4.05;0.10;;;32.80;43.40;;;;;;5088217;28;20457;-52
2022/08/24 11:44:42;;;;;;;3.15;0.10;;;32.90;43.50;;;;;;5087984;28;20583;-56
2022/08/24 11:47:38;;;;;;;2.53;0.15;;;32.90;43.60;;;;;;5089905;28;20125;-55
2022/08/24 11:50:19;;;;;;;4.40;0.20;;;33.00;43.60;;;;;;5099263;28;20044;-56
2022/08/24 11:52:57;;;;;;;7.57;0.30;;;33.00;43.60;;;;;;5086963;28;20076;-56
2022/08/24 11:55:33;;;;;;;2.13;0.35;;;33.10;44.40;;;;;;5089492;28;20131;-55
2022/08/24 11:58:02;;;;;;;;;;;33.10;43.80;;;;;;5092942;28;20602;-54
2022/08/24 12:00:43;;;;;;;6.97;1.30;;;33.10;43.60;;;;;;5093356;28;20016;-67
2022/08/24 12:03:26;;;;;;;3.50;0.52;;;33.20;44.40;;;;;;5089633;28;20154;-64
2022/08/24 12:06:00;;;;;;;3.10;0.20;;;33.20;44.60;;;;;;5085450;28;20040;-65
2022/08/24 12:08:35;;;;;;;0.65;0.10;;;33.30;44.10;;;;;;5085364;28;20032;-66
2022/08/24 12:11:09;;;;;;;0.43;0.10;;;33.30;43.40;;;;;;5053318;28;20044;-66
2022/08/24 12:13:45;;;;;;;3.83;0.30;;;33.40;43.70;;;;;;5088136;28;20060;-56
2022/08/24 12:16:19;;;;;;;0.68;0.10;;;33.50;43.00;;;;;;5092730;28;20555;-60
2022/08/24 12:18:55;;;;;;;1.00;0.00;;;33.60;42.90;;;;;;5086683;28;20071;-58
2022/08/24 12:21:26;;;;;;;2.80;0.20;;;33.80;42.90;;;;;;5087380;28;20047;-58
2022/08/24 12:23:59;;;;;;;1.08;0.10;;;33.80;42.20;;;;;;5090005;28;20040;-57
2022/08/24 12:26:30;;;;;;;0.55;0.10;;;34.00;41.80;;;;;;5096118;28;20067;-58
2022/08/24 12:29:02;;;;;;;0.77;0.10;;;34.20;41.40;;;;;;5087402;28;20393;-59
2022/08/24 12:31:39;;;;;;;2.25;0.00;;;34.40;40.90;;;;;;5087427;28;20039;-56
2022/08/24 12:34:13;;;;;;;0.25;0.08;;;34.50;40.30;;;;;;5087439;28;20051;-58
2022/08/24 12:36:50;;;;;;;0.00;0.00;;;34.60;39.90;;;;;;5087232;28;20070;-59
2022/08/24 12:39:22;;;;;;;0.00;0.00;;;34.80;39.40;;;;;;5074436;28;20075;-58
2022/08/24 12:42:00;;;;;;;0.08;0.00;;;34.80;38.90;;;;;;5089523;28;20040;-57
2022/08/24 12:44:35;;;;;;;0.40;0.00;;;35.00;38.90;;;;;;5083209;28;20079;-57
2022/08/24 12:47:02;;;;;;;0.10;0.05;;;35.10;38.20;;;;;;5101711;28;20035;-56
2022/08/24 12:49:35;;;;;;;0.40;0.10;;;35.10;37.90;;;;;;5086705;28;20420;-54
2022/08/24 12:52:27;;;;;;;0.52;0.10;;;35.20;37.90;;;;;;5086262;28;20048;-54
2022/08/24 12:55:15;;;;;;;0.88;0.00;;;35.40;37.90;;;;;;5082631;28;20474;-69
2022/08/24 12:57:52;;;;;;;1.20;0.10;;;35.40;37.50;;;;;;5093727;28;20043;-69
2022/08/24 13:00:22;;;;;;;0.10;0.00;;;35.50;37.00;;;;;;5087655;28;20043;-70
2022/08/24 13:02:57;;;;;;;0.90;0.05;;;35.50;36.70;;;;;;5096988;28;20135;-68
2022/08/24 13:05:38;;;;;;;0.25;0.00;;;35.60;36.40;;;;;;5086644;28;20040;-68
2022/08/24 13:08:11;;;;;;;0.57;0.57;;;35.60;36.30;;;;;;5092772;28;20050;-66
2022/08/24 13:10:43;;;;;;;4.65;0.10;;;35.60;36.10;;;;;;5088641;28;20036;-67
2022/08/24 13:13:15;;;;;;;2.08;0.10;;;35.60;36.00;;;;;;5077218;28;20040;-67
2022/08/24 13:15:59;;;;;;;1.45;0.52;;;35.50;35.90;;;;;;5096062;28;20055;-66
2022/08/24 13:19:14;;;;;;;0.32;0.10;;;35.50;35.90;;;;;;5084795;28;20040;-68
2022/08/24 13:21:54;;;;;;;4.47;0.10;;;35.50;35.80;;;;;;5099788;28;20048;-66
2022/08/24 13:24:58;;;;;;;0.45;0.10;;;35.50;35.80;;;;;;5091127;28;20131;-66
2022/08/24 13:28:11;;;;;;;0.52;0.03;;;35.50;35.80;;;;;;5096284;28;20064;-65
2022/08/24 13:30:59;;;;;;;1.20;0.08;;;35.40;35.70;;;;;;5087040;28;20504;-65
2022/08/24 13:33:31;;;;;;;0.98;0.10;;;35.40;35.70;;;;;;5087107;28;20094;-66